Impacts TAF Board
For situational awareness. Not to be used for flight planning purposes.
IDs:

KRDM - Redmond Muni, OR, US

Issued at 1720 UTC 06 Dec 2019
Updated at 2147 UTC 06 Dec 2019
Potential Impact None Slight Moderate High
Time2056Z 06/22Z 06/23Z 07/00Z 07/01Z 07/02Z 07/03Z 07/04Z 07/05Z 07/06Z 07/07Z 07/08Z 07/09Z 07/10Z>>
Type OBS PRVL PRVL PRVL PRVL PRVL PRVL PRVL PRVL PRVL PRVL PRVL PRVL PRVL
VIS 10 >6 >6 >6 >6 >6 >6 6 6 6 6 5 5 5
CIG -- 150 150 150 150 150 150 35 35 35 35 35 35 35
Cover FEW OVC OVC OVC OVC OVC OVC OVC OVC OVC OVC OVC OVC OVC
FltCat VFR VFR VFR VFR VFR VFR VFR VFR VFR VFR VFR MVFR MVFR MVFR
WX -- -- -- -- -- -- -- -RA BR -RA BR -RA BR -RA BR -RA BR -RA BR -RA BR
WDir 150 130 130 130 130 130 130 180 180 180 180 170 170 170
WSpd 6 5 5 5 5 5 5 7 7 7 7 7 7 7
WGst -- -- -- -- -- -- -- -- -- -- -- -- -- --
Raw TAF
KRDM 061720Z 0618/0718 13005KT P6SM SCT045 BKN150 OVC200
  FM070400 18007KT 6SM -RA BR BKN035 OVC050
  FM070800 17007KT 5SM -RA BR SCT025 OVC035
  FM071500 VRB05KT 6SM BR FEW025 BKN040


Raw METAR
KRDM 062056Z 15006KT 10SM FEW049 07/01 A2995 RMK AO2 SLP149 T00720006 56017
KRDM 061956Z 14007KT 10SM CLR 07/01 A2997 RMK AO2 SLP153 T00720006
KRDM 061856Z 14008KT 10SM CLR 07/00 A3000 RMK AO2 SLP165 T00670000

METAR Board
Radar Display
Forecast Discussion
For situational awareness. Not to be used for flight planning purposes.